Time;durP1;ratioP1;P1;durP2;ratioP2;P2;SDS_P1;SDS_P2;PMS_P1;PMS_P2;Temp;Humidity;BMP_temperature;BMP_pressure;BME280_temperature;BME280_humidity;BME280_pressure;Samples;Min_cycle;Max_cycle;Signal;HPM_P1;HPM_P2
2023/07/14 00:00:18;;;;;;;5.75;5.15;;;;;;;22.73;50.66;93730.91;5018028;28;20262;-90
2023/07/14 00:02:44;;;;;;;6.82;5.10;;;;;;;22.70;50.76;93734.72;5008432;28;20453;-90
2023/07/14 00:05:18;;;;;;;5.85;4.88;;;;;;;22.70;50.52;93743.00;5024580;28;20602;-90
2023/07/14 00:07:48;;;;;;;5.72;5.07;;;;;;;22.73;50.48;93738.44;5025091;28;20062;-91
2023/07/14 00:10:26;;;;;;;5.07;4.57;;;;;;;22.72;50.53;93729.44;5023217;28;20148;-90
2023/07/14 00:12:51;;;;;;;6.78;4.63;;;;;;;22.74;50.59;93731.63;4978392;28;20038;-91
2023/07/14 00:15:17;;;;;;;6.97;4.93;;;;;;;22.70;50.76;93731.97;5008069;28;20049;-90
2023/07/14 00:17:42;;;;;;;6.07;4.68;;;;;;;22.71;50.61;93735.47;5008007;28;20056;-90
2023/07/14 00:20:22;;;;;;;6.38;5.57;;;;;;;22.69;50.40;93727.72;4991556;28;20382;-91
2023/07/14 00:22:51;;;;;;;5.03;4.40;;;;;;;22.71;50.41;93727.19;4999356;28;20124;-90
2023/07/14 00:25:16;;;;;;;9.15;4.93;;;;;;;22.69;50.51;93724.97;5016018;28;20034;-90
2023/07/14 00:27:42;;;;;;;5.95;5.05;;;;;;;22.69;50.69;93718.72;5009042;28;20531;-90
2023/07/14 00:30:13;;;;;;;6.88;5.38;;;;;;;22.69;50.39;93718.72;5007996;28;20037;-90
2023/07/14 00:32:39;;;;;;;6.03;5.07;;;;;;;22.72;50.64;93725.94;4991116;28;20451;-90
2023/07/14 00:35:20;;;;;;;4.93;4.43;;;;;;;22.70;50.44;93726.47;5008726;28;20510;-90
2023/07/14 00:37:47;;;;;;;6.72;5.40;;;;;;;22.69;50.56;93722.22;4996633;28;20034;-90
2023/07/14 00:40:15;;;;;;;5.65;4.93;;;;;;;22.68;50.31;93715.22;5019238;28;20045;-91
2023/07/14 00:42:40;;;;;;;5.32;4.50;;;;;;;22.69;50.71;93726.97;5018939;28;20048;-90
2023/07/14 00:45:10;;;;;;;8.27;5.13;;;;;;;22.69;50.51;93715.97;5017963;28;20034;-90
2023/07/14 00:47:36;;;;;;;4.95;4.13;;;;;;;22.71;50.64;93718.94;4994041;28;20044;-90
2023/07/14 00:50:02;;;;;;;6.90;4.45;;;;;;;22.70;50.48;93726.47;5013586;28;20412;-90
2023/07/14 00:52:31;;;;;;;5.82;4.28;;;;;;;22.69;50.50;93719.47;5009584;28;20527;-91
2023/07/14 00:54:56;;;;;;;5.05;4.30;;;;;;;22.70;50.50;93720.19;5007167;28;20052;-90
2023/07/14 00:57:22;;;;;;;6.45;4.47;;;;;;;22.67;50.66;93718.50;5027796;28;20041;-90
2023/07/14 00:59:48;;;;;;;5.32;4.53;;;;;;;22.69;50.55;93708.44;5024347;28;20198;-91
2023/07/14 01:02:19;;;;;;;4.85;4.38;;;;;;;22.66;50.37;93715.00;4991215;28;20154;-89
2023/07/14 01:04:53;;;;;;;5.47;4.90;;;;;;;22.67;50.53;93718.50;5005925;28;20041;-91
2023/07/14 01:07:23;;;;;;;4.40;3.75;;;;;;;22.70;50.33;93714.69;4996022;28;20053;-91
2023/07/14 01:09:49;;;;;;;5.05;4.07;;;;;;;22.69;50.76;93713.94;5011307;28;20049;-89
2023/07/14 01:12:16;;;;;;;4.57;4.05;;;;;;;22.68;50.88;93728.25;5027341;28;20038;-89
2023/07/14 01:14:43;;;;;;;6.13;4.57;;;;;;;22.67;50.76;93726.78;5028417;28;20815;-90
2023/07/14 01:17:08;;;;;;;5.03;4.10;;;;;;;22.68;51.00;93723.50;4998258;28;20072;-90
2023/07/14 01:19:37;;;;;;;5.63;4.18;;;;;;;22.66;50.92;93726.03;5017212;28;20042;-91
2023/07/14 01:22:12;;;;;;;4.60;4.20;;;;;;;22.66;50.73;93728.03;5009247;28;20201;-90
2023/07/14 01:24:44;;;;;;;4.72;4.03;;;;;;;22.67;50.79;93721.25;5021405;28;20042;-90
2023/07/14 01:27:10;;;;;;;5.05;4.38;;;;;;;22.67;50.50;93716.50;5024049;28;20049;-90
2023/07/14 01:29:35;;;;;;;5.22;4.72;;;;;;;22.64;50.83;93717.56;5017096;28;20047;-91
2023/07/14 01:32:01;;;;;;;5.00;4.20;;;;;;;22.64;51.02;93731.34;5007472;28;20042;-90
2023/07/14 01:34:28;;;;;;;4.20;3.78;;;;;;;22.65;50.89;93727.31;5026716;28;20456;-90
2023/07/14 01:36:58;;;;;;;5.65;4.75;;;;;;;22.66;50.71;93722.53;5007958;28;20116;-90
2023/07/14 01:39:24;;;;;;;4.57;4.10;;;;;;;22.65;50.83;93724.53;5000580;28;20057;-89
2023/07/14 01:41:50;;;;;;;6.15;3.92;;;;;;;22.66;50.70;93719.78;5024753;28;20039;-90
2023/07/14 01:44:16;;;;;;;4.50;3.55;;;;;;;22.65;50.73;93724.53;5025610;28;20044;-91
2023/07/14 01:46:42;;;;;;;4.78;4.03;;;;;;;22.66;50.73;93728.03;4994104;28;20037;-90
2023/07/14 01:49:25;;;;;;;4.43;3.75;;;;;;;22.64;50.77;93723.06;5018324;28;20535;-90
2023/07/14 01:51:50;;;;;;;4.20;3.72;;;;;;;22.66;50.70;93730.81;5024056;28;20034;-90
2023/07/14 01:54:35;;;;;;;4.78;3.80;;;;;;;22.65;51.21;93721.06;5009358;28;20037;-90
2023/07/14 01:57:03;;;;;;;6.22;4.63;;;;;;;22.63;50.84;93715.31;5023836;28;20049;-90
2023/07/14 01:59:33;;;;;;;5.07;3.95;;;;;;;22.64;50.83;93717.56;5043218;28;20052;-89
2023/07/14 02:01:59;;;;;;;4.90;4.03;;;;;;;22.64;50.86;93723.06;4975600;28;20037;-89
2023/07/14 02:04:32;;;;;;;4.13;3.70;;;;;;;22.64;50.78;93712.03;4994575;28;20036;-90
2023/07/14 02:06:58;;;;;;;4.78;3.70;;;;;;;22.64;50.81;93719.56;4996331;28;20051;-89
2023/07/14 02:09:24;;;;;;;4.13;3.63;;;;;;;22.63;50.83;93735.34;5009133;28;20048;-90
2023/07/14 02:11:52;;;;;;;3.78;3.38;;;;;;;22.62;50.68;93731.13;4976341;28;20045;-90
2023/07/14 02:14:18;;;;;;;4.40;4.00;;;;;;;22.65;50.90;93719.03;5000548;28;20053;-90
2023/07/14 02:16:47;;;;;;;5.35;3.78;;;;;;;22.64;50.77;93725.06;4991385;28;20084;-90
2023/07/14 02:19:16;;;;;;;5.13;3.65;;;;;;;22.63;50.80;93727.09;4996897;28;20052;-90
2023/07/14 02:21:41;;;;;;;4.38;3.97;;;;;;;22.61;50.77;93734.41;4991247;28;20525;-90
2023/07/14 02:24:07;;;;;;;3.63;3.17;;;;;;;22.62;50.87;93730.38;5002938;28;20057;-90
2023/07/14 02:26:33;;;;;;;4.00;3.60;;;;;;;22.60;50.91;93722.63;5008791;28;20192;-90
2023/07/14 02:28:58;;;;;;;5.72;3.88;;;;;;;22.61;50.83;93723.38;5011782;28;20504;-90
2023/07/14 02:31:31;;;;;;;3.90;3.50;;;;;;;22.63;50.87;93731.84;5003134;28;20045;-90
2023/07/14 02:33:56;;;;;;;4.05;3.13;;;;;;;22.62;50.74;93730.38;5020546;28;20038;-90
2023/07/14 02:36:43;;;;;;;5.90;3.38;;;;;;;22.62;50.72;93730.38;5017498;28;20100;-90
2023/07/14 02:39:08;;;;;;;3.78;3.40;;;;;;;22.62;50.87;93733.88;5014951;28;20045;-91
2023/07/14 02:41:39;;;;;;;4.78;3.60;;;;;;;22.60;50.80;93736.41;5015521;28;20053;-89
2023/07/14 02:44:07;;;;;;;3.72;3.17;;;;;;;22.61;50.62;93742.66;5004103;28;20041;-90
2023/07/14 02:46:49;;;;;;;4.00;3.60;;;;;;;22.60;50.88;93730.16;5009382;28;20107;-90
2023/07/14 02:49:14;;;;;;;4.57;2.75;;;;;;;22.61;50.82;93739.91;5021554;28;20076;-91
2023/07/14 02:51:40;;;;;;;4.32;3.40;;;;;;;22.62;50.44;93727.63;4993944;28;20033;-90
2023/07/14 02:54:05;;;;;;;4.38;3.67;;;;;;;22.58;50.86;93723.16;5008115;28;20042;-89
2023/07/14 02:56:31;;;;;;;4.30;3.30;;;;;;;22.60;50.67;93730.91;5010369;28;20041;-89
2023/07/14 02:58:57;;;;;;;3.53;3.03;;;;;;;22.60;50.69;93732.91;5017424;28;20037;-90
2023/07/14 03:01:23;;;;;;;4.72;3.10;;;;;;;22.60;50.74;93725.38;5021840;28;20049;-90
2023/07/14 03:03:49;;;;;;;4.03;3.33;;;;;;;22.60;50.64;93733.66;5024106;28;20041;-89
2023/07/14 03:06:16;;;;;;;5.15;3.05;;;;;;;22.59;50.77;93732.16;4992052;28;20057;-89
2023/07/14 03:08:42;;;;;;;5.18;3.75;;;;;;;22.58;50.89;93742.44;5008523;28;20077;-90
2023/07/14 03:11:07;;;;;;;5.05;3.20;;;;;;;22.58;50.95;93733.44;5021225;28;20030;-90
2023/07/14 03:13:35;;;;;;;4.95;3.72;;;;;;;22.60;50.51;93735.66;5006479;28;20049;-89
2023/07/14 03:16:00;;;;;;;3.70;3.05;;;;;;;22.58;50.84;93736.94;4992795;28;20046;-90
2023/07/14 03:18:25;;;;;;;3.47;3.13;;;;;;;22.61;50.68;93737.91;5019187;28;20045;-92
2023/07/14 03:20:58;;;;;;;4.70;3.40;;;;;;;22.58;50.97;93741.72;5023316;28;20416;-90
2023/07/14 03:23:24;;;;;;;3.47;2.95;;;;;;;22.58;50.77;93731.44;4991984;28;20033;-90
2023/07/14 03:26:03;;;;;;;4.28;3.08;;;;;;;22.57;50.75;93729.22;5022175;28;20048;-90
2023/07/14 03:28:29;;;;;;;3.78;3.38;;;;;;;22.55;50.85;93732.50;5003304;28;20599;-89
2023/07/14 03:30:56;;;;;;;3.85;3.10;;;;;;;22.54;50.93;93739.28;5005437;28;20049;-90
2023/07/14 03:33:21;;;;;;;3.58;3.08;;;;;;;22.57;50.60;93729.22;5009394;28;20407;-90
2023/07/14 03:35:47;;;;;;;3.42;3.13;;;;;;;22.58;50.76;93736.94;5005872;28;20041;-90
2023/07/14 03:38:12;;;;;;;3.42;2.60;;;;;;;22.58;50.74;93731.44;5020460;28;20041;-90
2023/07/14 03:40:40;;;;;;;4.32;2.97;;;;;;;22.58;50.79;93739.69;5003987;28;20037;-90
2023/07/14 03:43:05;;;;;;;4.25;3.22;;;;;;;22.57;50.75;93737.47;5025007;28;20033;-91
2023/07/14 03:45:31;;;;;;;3.78;3.17;;;;;;;22.57;50.74;93732.69;5011772;28;20046;-90
2023/07/14 03:48:00;;;;;;;3.45;3.00;;;;;;;22.57;50.58;93734.72;5007253;28;20288;-90
2023/07/14 03:50:25;;;;;;;3.33;3.00;;;;;;;22.57;50.74;93734.72;5008048;28;20053;-90
2023/07/14 03:52:52;;;;;;;3.88;3.30;;;;;;;22.56;50.84;93730.47;5008076;28;20060;-90
2023/07/14 03:55:17;;;;;;;3.67;3.00;;;;;;;22.58;50.64;93733.44;5008511;28;20042;-90
2023/07/14 03:57:43;;;;;;;3.90;3.40;;;;;;;22.58;50.44;93738.97;5025284;28;20045;-91
2023/07/14 04:00:12;;;;;;;3.08;2.75;;;;;;;22.56;50.63;93733.97;5005107;28;20137;-90
2023/07/14 04:02:39;;;;;;;3.40;2.50;;;;;;;22.58;50.72;93733.44;5007837;28;20046;-90
2023/07/14 04:05:07;;;;;;;2.83;2.58;;;;;;;22.61;50.35;93729.63;5006685;28;20358;-90
2023/07/14 04:07:33;;;;;;;3.35;2.90;;;;;;;22.60;50.49;93739.16;5024194;28;20037;-90
2023/07/14 04:09:58;;;;;;;3.63;2.58;;;;;;;22.62;50.65;93730.38;5008840;28;20471;-90
2023/07/14 04:12:24;;;;;;;3.13;2.53;;;;;;;22.64;50.40;93725.81;5008228;28;20042;-90
2023/07/14 04:14:49;;;;;;;4.18;2.78;;;;;;;22.70;50.31;93736.75;5021044;28;20473;-90
2023/07/14 04:17:15;;;;;;;2.92;2.42;;;;;;;22.72;50.46;93726.66;5005547;28;20045;-90
2023/07/14 04:19:40;;;;;;;3.40;2.75;;;;;;;22.77;50.17;93714.78;5025730;28;20041;-90
2023/07/14 04:22:06;;;;;;;3.08;2.72;;;;;;;22.73;50.34;93724.66;5043077;28;20107;-91
2023/07/14 04:24:31;;;;;;;2.85;2.40;;;;;;;22.78;50.22;93719.03;5014399;28;20053;-90
2023/07/14 04:26:58;;;;;;;2.58;2.38;;;;;;;22.78;50.07;93721.06;5023158;28;20049;-90
2023/07/14 04:29:23;;;;;;;2.95;2.38;;;;;;;22.78;50.14;93724.56;5012299;28;20114;-91
2023/07/14 04:31:49;;;;;;;2.63;1.95;;;;;;;22.78;49.94;93719.03;5015020;28;20044;-90
2023/07/14 04:34:14;;;;;;;3.47;2.40;;;;;;;22.79;50.46;93722.53;5047144;28;20577;-90
2023/07/14 04:36:40;;;;;;;3.97;2.42;;;;;;;22.80;50.11;93730.28;5019308;28;20049;-90
2023/07/14 04:39:10;;;;;;;3.20;2.42;;;;;;;22.79;50.14;93717.75;5003302;28;20041;-90
2023/07/14 04:41:36;;;;;;;3.40;2.35;;;;;;;22.79;50.12;93717.03;5001586;28;20128;-90
2023/07/14 04:44:05;;;;;;;2.95;2.30;;;;;;;22.80;50.20;93727.53;4993120;28;20117;-90
2023/07/14 04:46:30;;;;;;;2.60;2.28;;;;;;;22.81;49.93;93725.50;5030016;28;20060;-90
2023/07/14 04:48:56;;;;;;;3.63;2.00;;;;;;;22.82;49.98;93727.72;5013636;28;20048;-90
2023/07/14 04:51:21;;;;;;;2.20;1.92;;;;;;;22.84;50.10;93716.91;5025358;28;20052;-90
2023/07/14 04:53:47;;;;;;;2.75;1.92;;;;;;;22.84;50.00;93724.44;5010857;28;20041;-90
2023/07/14 04:56:12;;;;;;;2.40;1.85;;;;;;;22.83;49.17;93718.19;4995306;28;20041;-91
2023/07/14 04:58:38;;;;;;;6.10;2.22;;;;;;;22.84;48.09;93718.94;5027541;28;20054;-90
2023/07/14 05:01:03;;;;;;;9.57;2.90;;;;;;;22.75;47.54;93722.09;5016003;28;20493;-90
2023/07/14 05:03:29;;;;;;;3.10;2.25;;;;;;;22.76;47.11;93718.06;5028660;28;20041;-90
2023/07/14 05:05:54;;;;;;;3.75;2.22;;;;;;;22.63;46.89;93729.09;5018752;28;20121;-90
2023/07/14 05:08:20;;;;;;;5.63;2.10;;;;;;;22.64;46.84;93720.31;5026961;28;20037;-90
2023/07/14 05:10:45;;;;;;;2.80;2.20;;;;;;;22.57;46.93;93729.94;5023133;28;20489;-89
2023/07/14 05:13:11;;;;;;;5.30;2.20;;;;;;;22.62;46.98;93722.09;5025528;28;20030;-90
2023/07/14 05:15:36;;;;;;;3.15;2.00;;;;;;;22.59;47.18;93712.88;5009048;28;20052;-90
2023/07/14 05:18:02;;;;;;;2.90;1.95;;;;;;;22.53;47.14;93723.28;5011502;28;20045;-90
2023/07/14 05:20:28;;;;;;;13.85;4.07;;;;;;;22.52;47.17;93716.28;5027264;28;20488;-90
2023/07/14 05:22:54;;;;;;;7.95;3.65;;;;;;;22.56;46.76;93716.69;5009488;28;20215;-90
2023/07/14 05:25:20;;;;;;;7.85;3.17;;;;;;;22.44;46.64;93704.44;5006022;28;20160;-90
2023/07/14 05:27:45;;;;;;;9.70;3.63;;;;;;;22.48;46.14;93713.13;5007905;28;20046;-90
2023/07/14 05:30:14;;;;;;;8.63;4.10;;;;;;;22.41;45.65;93716.50;5002999;28;20049;-90
2023/07/14 05:32:39;;;;;;;6.07;2.80;;;;;;;22.39;45.51;93721.78;5027599;28;20045;-90
2023/07/14 05:35:06;;;;;;;13.48;3.75;;;;;;;22.47;45.10;93719.91;5014579;28;20057;-91
2023/07/14 05:37:32;;;;;;;11.27;3.92;;;;;;;22.44;45.05;93713.44;5006624;28;20064;-90
2023/07/14 05:39:57;;;;;;;21.33;4.20;;;;;;;22.40;45.29;93717.78;4983757;28;20041;-90
2023/07/14 05:42:23;;;;;;;15.40;3.50;;;;;;;22.41;45.37;93720.00;5011726;28;20046;-90
2023/07/14 05:44:48;;;;;;;10.77;3.25;;;;;;;22.45;45.39;93725.94;4986769;28;20046;-91
2023/07/14 05:47:14;;;;;;;12.18;4.25;;;;;;;22.49;45.49;93717.34;5011130;28;20534;-91
2023/07/14 05:49:39;;;;;;;9.55;3.67;;;;;;;22.61;45.17;93712.34;5009026;28;20038;-90
2023/07/14 05:52:06;;;;;;;7.55;3.33;;;;;;;22.51;45.76;93717.56;5009513;28;20038;-92
2023/07/14 05:54:31;;;;;;;9.82;2.90;;;;;;;22.54;45.72;93722.75;4989637;28;20093;-90
2023/07/14 05:56:57;;;;;;;9.43;2.72;;;;;;;22.45;46.73;93717.66;5009454;28;20053;-92
2023/07/14 05:59:22;;;;;;;6.45;2.83;;;;;;;22.49;47.05;93720.09;5010575;28;20515;-91
2023/07/14 06:01:48;;;;;;;6.68;2.67;;;;;;;22.47;47.20;93717.88;5017663;28;20116;-91
2023/07/14 06:04:14;;;;;;;9.43;3.13;;;;;;;22.51;47.51;93718.31;5002064;28;20038;-92
2023/07/14 06:06:40;;;;;;;362.60;42.90;;;;;;;22.55;47.10;93718.72;5006376;28;20046;-92
2023/07/14 06:09:05;;;;;;;34.60;5.65;;;;;;;22.56;47.53;93717.44;5012666;28;20034;-93
2023/07/14 06:11:31;;;;;;;18.20;3.95;;;;;;;22.56;47.79;93719.44;4998166;28;20399;-91
2023/07/14 06:13:56;;;;;;;13.18;4.65;;;;;;;22.54;47.77;93725.50;5009010;28;20112;-91
2023/07/14 06:16:22;;;;;;;19.83;5.00;;;;;;;22.54;47.99;93719.25;5028600;28;20106;-92
2023/07/14 06:18:48;;;;;;;21.35;4.63;;;;;;;22.55;48.27;93721.47;5028199;28;20056;-91
2023/07/14 06:21:14;;;;;;;17.08;3.85;;;;;;;22.59;48.00;93721.16;5010676;28;20092;-90
2023/07/14 06:23:39;;;;;;;19.35;4.47;;;;;;;22.58;48.21;93719.66;4988589;28;20559;-91
2023/07/14 06:26:05;;;;;;;11.80;3.60;;;;;;;22.62;47.88;93716.59;4974237;28;20050;-90
2023/07/14 06:28:31;;;;;;;14.77;4.32;;;;;;;22.64;48.70;93714.06;5003565;28;20049;-92
2023/07/14 06:31:06;;;;;;;12.18;3.95;;;;;;;22.62;48.79;93713.84;5020948;28;20053;-92
2023/07/14 06:33:32;;;;;;;11.10;3.17;;;;;;;22.62;48.97;93713.84;5007639;28;20493;-92
2023/07/14 06:35:58;;;;;;;11.30;3.50;;;;;;;22.64;48.84;93717.56;5010185;28;20588;-92
2023/07/14 06:38:25;;;;;;;14.65;3.67;;;;;;;22.67;48.52;93713.00;5023948;28;20038;-91
2023/07/14 06:40:57;;;;;;;6.07;3.45;;;;;;;22.67;48.31;93708.22;5018040;28;20092;-91
2023/07/14 06:43:23;;;;;;;46.00;33.50;;;;;;;22.72;48.25;93703.88;5006516;28;20104;-91
2023/07/14 06:45:48;;;;;;;10.45;3.92;;;;;;;22.75;48.20;93711.06;5010435;28;20116;-91
2023/07/14 06:48:14;;;;;;;41.67;20.23;;;;;;;22.73;48.24;93711.63;5010829;28;20045;-90
2023/07/14 06:50:39;;;;;;;29.55;9.35;;;;;;;22.75;48.40;93705.53;5009854;28;20068;-92
2023/07/14 06:53:05;;;;;;;37.60;8.75;;;;;;;22.80;48.16;93707.47;5010228;28;20095;-91
2023/07/14 06:55:30;;;;;;;18.98;6.70;;;;;;;22.82;48.13;93704.94;4994382;28;20045;-91
2023/07/14 06:57:56;;;;;;;22.52;8.75;;;;;;;22.84;48.26;93705.16;4993702;28;20041;-91
2023/07/14 07:00:22;;;;;;;14.13;5.90;;;;;;;22.90;47.59;93695.50;5027728;28;20041;-91
2023/07/14 07:02:59;;;;;;;11.32;5.28;;;;;;;22.95;47.67;93695.91;5101709;27;20392;-89
2023/07/14 07:05:25;;;;;;;15.52;5.88;;;;;;;22.96;47.60;93698.13;5068002;28;20131;-90
2023/07/14 07:07:50;;;;;;;18.85;5.32;;;;;;;22.98;47.41;93694.81;5051835;28;20048;-90
2023/07/14 07:10:16;;;;;;;12.48;6.13;;;;;;;23.03;47.52;93697.47;5070241;28;20040;-90
2023/07/14 07:12:42;;;;;;;21.65;5.45;;;;;;;23.06;47.78;93701.91;5069037;28;20387;-89
2023/07/14 07:15:07;;;;;;;15.43;5.25;;;;;;;23.07;47.76;93695.13;5069179;28;20520;-89
2023/07/14 07:17:33;;;;;;;47.70;22.15;;;;;;;23.07;47.38;93688.88;5069760;28;20070;-89
2023/07/14 07:19:58;;;;;;;28.25;14.63;;;;;;;23.10;47.42;93690.56;5051769;28;20122;-89
2023/07/14 07:22:24;;;;;;;39.95;18.10;;;;;;;23.10;47.49;93690.56;5051064;28;20326;-89
2023/07/14 07:24:49;;;;;;;25.70;14.13;;;;;;;23.13;47.63;93690.25;5070184;28;20055;-90
2023/07/14 07:27:15;;;;;;;28.98;12.18;;;;;;;23.12;47.66;93691.50;5067644;28;20047;-89
2023/07/14 07:29:41;;;;;;;25.15;13.05;;;;;;;23.16;47.31;93686.41;5070369;28;20397;-89
2023/07/14 07:32:07;;;;;;;23.92;16.83;;;;;;;23.16;47.49;93677.41;5052222;28;20036;-89
2023/07/14 07:34:33;;;;;;;34.75;21.20;;;;;;;23.16;47.42;93691.19;5068270;28;20085;-90
2023/07/14 07:36:58;;;;;;;30.15;19.88;;;;;;;23.17;47.27;93687.13;5053100;28;20047;-90
2023/07/14 07:39:24;;;;;;;41.95;22.27;;;;;;;23.19;47.30;93688.06;5082051;27;20046;-90
2023/07/14 07:41:50;;;;;;;47.67;21.17;;;;;;;23.21;47.65;93680.00;5053515;28;20040;-90
2023/07/14 07:44:15;;;;;;;43.65;23.90;;;;;;;23.25;47.88;93691.47;5053072;28;20043;-90
2023/07/14 07:46:41;;;;;;;82.28;43.22;;;;;;;23.23;47.51;93685.72;5069436;28;20062;-90
2023/07/14 07:49:06;;;;;;;88.93;39.47;;;;;;;23.26;47.57;93689.44;5051241;28;20036;-90
2023/07/14 07:51:32;;;;;;;71.18;38.63;;;;;;;23.24;47.42;93686.47;5057469;28;20044;-91
2023/07/14 07:53:57;;;;;;;96.45;48.17;;;;;;;23.25;47.65;93674.91;5069500;28;20035;-89
2023/07/14 07:56:23;;;;;;;99.15;51.63;;;;;;;23.28;47.30;93684.13;5051252;28;20040;-89
2023/07/14 07:58:49;;;;;;;106.78;50.10;;;;;;;23.27;47.96;93679.88;5053759;28;20052;-88
2023/07/14 08:01:20;;;;;;;119.20;66.90;;;;;;;23.32;47.41;93686.56;5075767;28;20645;-89
2023/07/14 08:03:45;;;;;;;153.82;91.60;;;;;;;23.33;47.47;93685.28;5067191;28;20047;-91
2023/07/14 08:06:10;;;;;;;105.72;62.78;;;;;;;23.33;47.45;93688.03;5101854;28;20036;-91
2023/07/14 08:08:36;;;;;;;97.38;51.80;;;;;;;23.32;47.68;93681.03;5068778;28;20050;-88
2023/07/14 08:11:02;;;;;;;117.32;53.83;;;;;;;23.30;47.44;93691.88;5068432;28;20044;-90
2023/07/14 08:13:28;;;;;;;93.10;43.70;;;;;;;23.32;47.54;93679.03;5043119;28;20051;-90
2023/07/14 08:15:54;;;;;;;69.07;39.80;;;;;;;23.33;47.74;93693.56;5069211;28;20126;-89
2023/07/14 08:18:20;;;;;;;78.85;40.72;;;;;;;23.33;47.66;93696.31;5044926;28;20248;-89
2023/07/14 08:20:47;;;;;;;86.05;41.72;;;;;;;23.36;47.59;93689.72;5037940;28;20032;-88
2023/07/14 08:23:15;;;;;;;75.05;35.17;;;;;;;23.32;47.72;93690.06;5037818;28;20029;-88
2023/07/14 08:25:40;;;;;;;74.63;37.45;;;;;;;23.32;47.78;93687.31;5040189;28;20136;-88
2023/07/14 08:28:06;;;;;;;90.95;36.88;;;;;;;23.32;47.88;93687.31;5036322;28;20122;-90
2023/07/14 08:30:31;;;;;;;104.28;40.42;;;;;;;23.34;47.69;93684.75;5055739;28;20048;-90
2023/07/14 08:32:57;;;;;;;80.68;39.85;;;;;;;23.35;47.69;93686.22;5054963;28;20454;-91
2023/07/14 08:35:23;;;;;;;68.75;34.45;;;;;;;23.36;47.78;93686.97;5036961;28;20567;-88
2023/07/14 08:37:48;;;;;;;71.07;35.35;;;;;;;23.31;47.70;93680.31;5038110;28;20044;-91
2023/07/14 08:40:16;;;;;;;65.03;34.53;;;;;;;23.33;47.58;93668.72;5070691;28;20101;-89
2023/07/14 08:42:52;;;;;;;93.22;35.58;;;;;;;23.34;47.73;93679.22;5037914;28;20445;-88
2023/07/14 08:45:26;;;;;;;75.72;35.55;;;;;;;23.35;47.75;93666.91;5038559;28;20059;-91
2023/07/14 08:48:13;;;;;;;83.70;34.70;;;;;;;23.35;47.94;93671.69;5043601;28;20374;-89
2023/07/14 08:50:38;;;;;;;56.60;30.90;;;;;;;23.35;47.48;93672.44;5058904;28;20048;-90
2023/07/14 08:53:04;;;;;;;71.22;31.83;;;;;;;23.35;47.82;93668.94;5041104;28;20037;-89
2023/07/14 08:55:35;;;;;;;63.75;31.17;;;;;;;23.37;47.83;93660.88;5050832;28;20490;-90
2023/07/14 08:58:12;;;;;;;68.45;32.53;;;;;;;23.39;47.70;93661.78;5036323;28;20450;-91
2023/07/14 09:00:40;;;;;;;86.07;38.53;;;;;;;23.42;47.80;93659.97;5041990;28;20040;-88
2023/07/14 09:03:24;;;;;;;110.78;60.00;;;;;;;23.36;47.50;93664.91;5058760;28;20126;-91
2023/07/14 09:05:52;;;;;;;78.38;36.42;;;;;;;23.41;47.90;93661.25;5031300;28;20045;-89
2023/07/14 09:08:18;;;;;;;70.75;33.25;;;;;;;23.39;47.58;93663.81;5051109;28;20041;-90
2023/07/14 09:10:55;;;;;;;55.00;28.40;;;;;;;23.38;47.34;93662.34;5016904;28;20810;-89
2023/07/14 09:14:01;;;;;;;50.80;26.05;;;;;;;23.37;47.76;93656.09;5032869;28;20060;-90
2023/07/14 09:16:26;;;;;;;86.50;67.05;;;;;;;23.35;47.81;93658.66;5064090;28;21253;-90
2023/07/14 09:19:15;;;;;;;55.70;32.08;;;;;;;23.34;47.32;93653.66;5034624;28;20115;-90
2023/07/14 09:21:48;;;;;;;45.40;22.88;;;;;;;23.33;47.46;93652.19;5023539;28;20460;-89
2023/07/14 09:24:44;;;;;;;42.45;20.73;;;;;;;23.32;46.67;93656.97;5036578;28;20036;-90
2023/07/14 09:27:13;;;;;;;33.95;18.85;;;;;;;23.30;45.08;93658.78;5038946;28;20102;-89
2023/07/14 09:29:41;;;;;;;26.85;16.77;;;;;;;23.29;45.32;93651.78;5037854;28;20043;-90
2023/07/14 09:32:26;;;;;;;88.35;23.60;;;;;;;23.27;44.84;93643.28;5053772;28;20569;-89
2023/07/14 09:34:56;;;;;;;64.00;18.83;;;;;;;23.26;44.68;93631.50;5060021;28;20055;-89
2023/07/14 09:37:32;;;;;;;238.52;38.17;;;;;;;23.22;44.33;93629.09;5036391;28;20040;-90
2023/07/14 09:40:09;;;;;;;232.63;37.15;;;;;;;23.25;45.12;93627.28;5060119;28;20108;-89
2023/07/14 09:42:39;;;;;;;219.75;36.40;;;;;;;23.32;44.77;93623.13;5056193;28;20028;-88
2023/07/14 09:45:17;;;;;;;201.95;32.97;;;;;;;23.27;44.85;93626.75;5051091;28;20039;-88
2023/07/14 09:47:43;;;;;;;179.82;29.73;;;;;;;23.30;45.34;93620.16;5041256;28;20051;-89
2023/07/14 09:50:14;;;;;;;135.23;26.23;;;;;;;23.29;45.35;93626.94;5053177;28;20048;-90
2023/07/14 09:52:56;;;;;;;118.70;23.75;;;;;;;23.31;45.22;93627.16;5036103;28;20880;-90
2023/07/14 09:55:22;;;;;;;113.45;23.98;;;;;;;23.27;44.68;93621.97;5034333;28;20071;-89
2023/07/14 09:57:49;;;;;;;93.68;21.27;;;;;;;23.30;45.04;93625.66;5055286;28;20033;-89
2023/07/14 10:00:24;;;;;;;76.45;19.67;;;;;;;23.32;45.36;93612.06;5035347;28;20036;-90
2023/07/14 10:03:02;;;;;;;69.22;15.70;;;;;;;23.33;44.19;93617.06;5052072;28;20094;-89
2023/07/14 10:05:39;;;;;;;47.58;14.02;;;;;;;23.31;44.25;93603.06;5042747;28;20048;-88
2023/07/14 10:08:06;;;;;;;52.30;16.15;;;;;;;23.30;43.84;93612.63;5034180;28;20123;-89
2023/07/14 10:10:34;;;;;;;46.45;17.35;;;;;;;23.30;44.65;93618.13;5049550;28;20037;-88
2023/07/14 10:13:07;;;;;;;50.88;17.20;;;;;;;23.29;44.16;93611.13;5043436;28;20524;-89
2023/07/14 10:15:35;;;;;;;58.53;17.70;;;;;;;23.30;43.91;93614.63;5044302;28;20044;-90
2023/07/14 10:18:05;;;;;;;71.05;17.77;;;;;;;23.29;44.67;93619.41;5039728;28;20044;-90
2023/07/14 10:20:31;;;;;;;;;;;;;;;23.31;44.39;93614.09;5024911;28;20044;-90
2023/07/14 10:22:58;;;;;;;57.40;14.20;;;;;;;23.31;44.07;93610.59;5067469;28;19931;-90
2023/07/14 10:25:23;;;;;;;39.25;11.63;;;;;;;23.31;43.62;93613.34;5016876;28;20040;-90
2023/07/14 10:27:59;;;;;;;26.98;12.00;;;;;;;23.32;43.55;93609.31;5020794;28;20162;-90
2023/07/14 10:30:42;;;;;;;35.85;11.68;;;;;;;23.30;43.93;93595.31;5048989;28;20040;-90
2023/07/14 10:33:17;;;;;;;32.13;13.38;;;;;;;23.29;43.31;93605.63;5042820;28;20040;-88
2023/07/14 10:35:42;;;;;;;40.35;16.33;;;;;;;23.30;42.92;93596.06;5053426;28;20028;-90
2023/07/14 10:38:25;;;;;;;140.93;28.27;;;;;;;23.30;43.23;93603.59;5052193;28;20048;-90
2023/07/14 10:41:00;;;;;;;115.32;26.23;;;;;;;23.32;43.24;93590.75;5062871;28;20044;-90
2023/07/14 10:43:29;;;;;;;62.88;18.25;;;;;;;23.31;42.82;93583.75;5050707;28;20395;-90
2023/07/14 10:45:58;;;;;;;47.85;18.80;;;;;;;23.34;42.53;93573.66;5052362;28;20079;-91
2023/07/14 10:48:31;;;;;;;40.83;17.05;;;;;;;23.34;43.64;93570.91;5034967;28;20040;-91
2023/07/14 10:51:02;;;;;;;78.30;31.25;;;;;;;23.35;43.10;93575.88;5033066;28;20036;-92
2023/07/14 10:53:34;;;;;;;43.60;18.08;;;;;;;23.36;43.95;93584.91;5052013;28;20040;-92
2023/07/14 10:56:04;;;;;;;117.25;44.05;;;;;;;23.34;43.50;93568.88;5034678;28;20528;-91
2023/07/14 10:58:49;;;;;;;52.33;16.90;;;;;;;23.37;44.28;93570.56;5023459;28;20044;-91
2023/07/14 11:01:19;;;;;;;57.60;22.40;;;;;;;23.38;44.05;93552.75;5004400;28;20041;-91
2023/07/14 11:03:51;;;;;;;146.75;35.80;;;;;;;23.37;43.01;93562.28;5011326;28;20140;-91
2023/07/14 11:06:18;;;;;;;97.38;31.45;;;;;;;23.42;43.17;93549.63;5019173;28;20033;-90
2023/07/14 11:08:44;;;;;;;90.22;30.20;;;;;;;23.39;43.95;93556.94;5027246;28;20156;-90
2023/07/14 11:11:47;;;;;;;94.78;32.67;;;;;;;23.40;43.30;93547.41;5011881;28;20581;-90
2023/07/14 11:14:26;;;;;;;64.95;32.25;;;;;;;23.42;43.41;93541.34;5044748;28;20440;-90
2023/07/14 11:17:09;;;;;;;72.20;35.55;;;;;;;23.42;43.40;93546.84;5013539;28;20045;-89
2023/07/14 11:19:56;;;;;;;64.90;34.15;;;;;;;23.42;43.53;93536.56;5025769;28;20042;-89
2023/07/14 11:22:29;;;;;;;77.13;35.22;;;;;;;23.35;42.70;93531.00;5045651;28;20045;-90
2023/07/14 11:25:13;;;;;;;77.63;34.50;;;;;;;23.38;43.69;93543.72;5030342;28;20109;-90
2023/07/14 11:27:47;;;;;;;90.05;38.15;;;;;;;23.38;43.21;93536.19;5045887;28;20697;-90
2023/07/14 11:30:15;;;;;;;173.25;58.05;;;;;;;23.40;42.67;93530.84;5046575;28;20139;-91
2023/07/14 11:32:56;;;;;;;118.32;48.17;;;;;;;23.38;42.52;93527.16;5029981;28;20513;-90